Orient Star — V7LU9 — position and weather

sailwx.info

Track history (hours):
 
Tides and Currents Weather Stations Pressure Air Temp Water Temp Dewpoint Dewpoint Depression Visibility Wind Speed Wind Dir Waves Ship Positions

Orient Star

Last reported at 2018-May-04 10:55 UTC. Time now 2018-Jun-17 22:18 UTC.
Position N 35°54' E 014°32'.
Warning: this ship's position is 44 days out of date.

Length 46 m; draft 2.5 m.

MMSI: 538071062.

Date/timePositionNaut miles runAvg speedWind from/ knotsBaromVisibWave heightAir tempDewpointWater temp
2018-May-04 10:55N 35°54' E 014°32'2 4.9
2018-May-04 10:30N 35°56' E 014°32'  
2018-Apr-27 09:43N 35°54' E 014°32'210.6
2018-Apr-27 09:29N 35°55' E 014°34'1 1.5
2018-Apr-27 09:00N 35°55' E 014°34'2 0.5
2018-Apr-27 05:50N 35°54' E 014°32'411.5
2018-Apr-27 05:30N 35°56' E 014°36'611.5
2018-Apr-27 04:59N 35°58' E 014°43'1311.6
2018-Apr-27 03:51N 35°59' E 014°59'412.4
2018-Apr-27 03:30N 35°58' E 015°04'612.2
2018-Apr-27 03:00N 35°57' E 015°12'2112.2
2018-Apr-27 01:17N 36°00' E 015°37'310.0
2018-Apr-27 01:00N 36°00' E 015°41'5 9.7
2018-Apr-27 00:28N 35°60' E 015°47'3610.4
2018-Apr-26 21:02N 36°02' E 016°31'1 9.8
2018-Apr-26 20:53N 36°02' E 016°33'35610.9
2018-Apr-25 12:23N 36°26' E 023°53'  
Track history (hours):
 
Tides and Currents Weather Stations Pressure Air Temp Water Temp Dewpoint Dewpoint Depression Visibility Wind Speed Wind Dir Waves Ship Positions

Orient Star

Last reported at 2018-May-04 10:55 UTC. Time now 2018-Jun-17 22:18 UTC.
Position N 35°54' E 014°32'.
Warning: this ship's position is 44 days out of date.

Length 46 m; draft 2.5 m.

MMSI: 538071062.

Date/timePositionNaut miles runAvg speedWind from/ knotsBaromVisibWave heightAir tempDewpointWater temp
2018-May-04 10:55N 35°54' E 014°32'2 4.9
2018-May-04 10:30N 35°56' E 014°32'  
2018-Apr-27 09:43N 35°54' E 014°32'210.6
2018-Apr-27 09:29N 35°55' E 014°34'1 1.5
2018-Apr-27 09:00N 35°55' E 014°34'2 0.5
2018-Apr-27 05:50N 35°54' E 014°32'411.5
2018-Apr-27 05:30N 35°56' E 014°36'611.5
2018-Apr-27 04:59N 35°58' E 014°43'1311.6
2018-Apr-27 03:51N 35°59' E 014°59'412.4
2018-Apr-27 03:30N 35°58' E 015°04'612.2
2018-Apr-27 03:00N 35°57' E 015°12'2112.2
2018-Apr-27 01:17N 36°00' E 015°37'310.0
2018-Apr-27 01:00N 36°00' E 015°41'5 9.7
2018-Apr-27 00:28N 35°60' E 015°47'3610.4
2018-Apr-26 21:02N 36°02' E 016°31'1 9.8
2018-Apr-26 20:53N 36°02' E 016°33'35610.9
2018-Apr-25 12:23N 36°26' E 023°53'  

Dump ship's entire track history